Millers, Virginia
Current Conditions -  °F | °C
As of 9:54 AM on Thursday 30 Oct 2014 (Local Time) from KRIC Reporting Station
Few Clouds Few Clouds  
Wind Chill: 55°   Ceiling: Unl
Heat Index: 55°   Visibility: 10mi
Dew Point: 42°   Wind: 14mph
Humidity: 62%   Direction: 10°N
Pressure: 30.07"   Gusts: NA
Location:  37.4458°N, 77.3237°W
Report Text: KRIC 301354Z 01012KT 10SM FEW110 13/06 A3007 RMK AO2 SLP186 T01280056
Loading
Personal Weather Stations






























Interactive Weather Map
Tropical Storm Tracking
New forecast layout! Learn more

10-Day Weather Forecast

Advertisements
Track Severe Weather on mobile